createdAt,value
2022-08-01T00:01:33.698Z,100588.78
2022-08-01T00:04:01.936Z,100585.53
2022-08-01T00:06:29.854Z,100583.88
2022-08-01T00:08:58.644Z,100579.81
2022-08-01T00:11:27.402Z,100576.81
2022-08-01T00:13:56.564Z,100573.81
2022-08-01T00:16:24.635Z,100576.22
2022-08-01T00:18:57.520Z,100574.06
2022-08-01T00:21:27.121Z,100575.97
2022-08-01T00:23:56.038Z,100570.25
2022-08-01T00:26:23.958Z,100577.84
2022-08-01T00:28:51.954Z,100583.81
2022-08-01T00:31:21.376Z,100587.03
2022-08-01T00:33:50.089Z,100590.31
2022-08-01T00:36:19.480Z,100588.38
2022-08-01T00:38:47.365Z,100596.78
2022-08-01T00:41:15.820Z,100599.50
2022-08-01T00:43:44.343Z,100598.94
2022-08-01T00:46:12.202Z,100604.38
2022-08-01T00:49:41.753Z,100602.22
2022-08-01T00:52:12.986Z,100613.06
2022-08-01T00:54:41.146Z,100612.00
2022-08-01T00:57:10.105Z,100613.59
2022-08-01T00:59:39.876Z,100618.47
2022-08-01T01:02:15.760Z,100616.84
2022-08-01T01:04:43.994Z,100623.34
2022-08-01T01:07:19.453Z,100624.19
2022-08-01T01:09:54.848Z,100631.50
2022-08-01T01:12:37.337Z,100630.94
2022-08-01T01:15:09.902Z,100634.22
2022-08-01T01:17:50.470Z,100630.38
2022-08-01T01:20:24.229Z,100631.72
2022-08-01T01:23:12.779Z,100638.25
2022-08-01T01:25:47.642Z,100633.06
2022-08-01T01:28:23.036Z,100630.88
2022-08-01T01:30:54.143Z,100631.44
2022-08-01T01:33:23.649Z,100633.56
2022-08-01T01:35:55.309Z,100629.78
2022-08-01T01:38:26.880Z,100636.28
2022-08-01T01:40:56.146Z,100639.00
2022-08-01T01:43:28.726Z,100641.16
2022-08-01T01:45:58.557Z,100637.91
2022-08-01T01:48:27.748Z,100652.00
2022-08-01T01:50:58.061Z,100652.00
2022-08-01T01:53:27.292Z,100651.19
2022-08-01T01:56:56.508Z,100648.75
2022-08-01T01:59:28.409Z,100655.25
2022-08-01T02:02:08.828Z,100659.09
2022-08-01T02:04:38.646Z,100652.53
2022-08-01T02:07:08.170Z,100651.47
2022-08-01T02:09:36.491Z,100654.16
2022-08-01T02:12:09.216Z,100646.59
2022-08-01T02:14:38.031Z,100650.63
2022-08-01T02:17:07.653Z,100647.09
2022-08-01T02:19:37.882Z,100646.59
2022-08-01T02:22:10.161Z,100649.84
2022-08-01T02:24:39.910Z,100650.13
2022-08-01T02:27:11.509Z,100648.22
2022-08-01T02:29:43.347Z,100640.34
2022-08-01T02:32:22.685Z,100642.81
2022-08-01T02:34:53.445Z,100630.31
2022-08-01T02:37:22.195Z,100635.75
2022-08-01T02:39:53.191Z,100635.75
2022-08-01T02:42:21.137Z,100635.75
2022-08-01T02:44:50.603Z,100632.47
2022-08-01T02:47:22.342Z,100637.91
2022-08-01T02:53:44.169Z,100634.13
2022-08-01T02:56:14.368Z,100634.38
2022-08-01T02:58:42.973Z,100629.50
2022-08-01T03:01:11.615Z,100621.63
2022-08-01T03:03:46.752Z,100626.50
2022-08-01T03:06:15.616Z,100621.91
2022-08-01T03:08:44.732Z,100617.84
2022-08-01T03:11:13.716Z,100627.06
2022-08-01T03:13:43.829Z,100625.72
2022-08-01T03:17:15.684Z,100632.47
2022-08-01T03:19:48.176Z,100632.47
2022-08-01T03:22:18.053Z,100623.28
2022-08-01T03:24:48.743Z,100629.22
2022-08-01T03:27:20.371Z,100622.16
2022-08-01T03:29:48.794Z,100623.78
2022-08-01T03:32:17.485Z,100623.78
2022-08-01T03:34:50.312Z,100628.38
2022-08-01T03:37:25.153Z,100626.75
2022-08-01T03:39:56.972Z,100632.72
2022-08-01T03:42:27.594Z,100636.22
2022-08-01T03:44:59.354Z,100636.22
2022-08-01T03:47:33.164Z,100636.81
2022-08-01T03:50:04.043Z,100638.94
2022-08-01T03:52:32.892Z,100646.00
2022-08-01T03:55:06.197Z,100644.34
2022-08-01T03:57:35.783Z,100649.00
2022-08-01T04:00:10.416Z,100653.88
2022-08-01T04:02:39.192Z,100646.28
2022-08-01T04:05:10.653Z,100646.00
2022-08-01T04:07:40.331Z,100642.19
2022-08-01T04:10:13.042Z,100651.38
2022-08-01T04:12:41.263Z,100655.72
2022-08-01T04:15:10.472Z,100657.59
2022-08-01T04:17:38.546Z,100665.97
2022-08-01T04:23:51.529Z,100665.47
2022-08-01T04:26:21.447Z,100675.75
2022-08-01T04:28:51.025Z,100678.97
2022-08-01T04:31:19.771Z,100678.47
2022-08-01T04:33:50.730Z,100680.13
2022-08-01T04:36:20.421Z,100688.53
2022-08-01T04:38:56.703Z,100691.25
2022-08-01T04:41:25.090Z,100693.72
2022-08-01T04:43:55.792Z,100696.47
2022-08-01T04:46:25.772Z,100695.63
2022-08-01T04:48:54.451Z,100694.22
2022-08-01T04:51:23.385Z,100702.91
2022-08-01T04:53:57.572Z,100704.00
2022-08-01T04:56:31.276Z,100700.25
2022-08-01T04:59:19.783Z,100702.69
2022-08-01T05:01:51.006Z,100708.09
2022-08-01T05:04:19.583Z,100701.88
2022-08-01T05:06:47.430Z,100702.16
2022-08-01T05:09:17.020Z,100698.63
2022-08-01T05:11:45.792Z,100703.00
2022-08-01T05:14:13.597Z,100696.75
2022-08-01T05:16:42.793Z,100697.06
2022-08-01T05:19:11.409Z,100697.00
2022-08-01T05:21:39.561Z,100702.19
2022-08-01T05:24:08.130Z,100691.63
2022-08-01T05:26:38.400Z,100698.66
2022-08-01T05:29:07.196Z,100698.47
2022-08-01T05:31:35.811Z,100705.22
2022-08-01T05:34:03.925Z,100705.03
2022-08-01T05:36:32.292Z,100708.56
2022-08-01T05:39:01.260Z,100713.47
2022-08-01T05:41:30.223Z,100705.81
2022-08-01T05:44:00.538Z,100708.31
2022-08-01T05:46:29.215Z,100712.41
2022-08-01T05:48:58.181Z,100705.84
2022-08-01T05:51:26.261Z,100709.69
2022-08-01T05:53:54.260Z,100711.03
2022-08-01T05:56:23.139Z,100706.69
2022-08-01T05:58:51.695Z,100709.03
2022-08-01T06:01:24.675Z,100704.44
2022-08-01T06:03:55.222Z,100712.88
2022-08-01T06:06:25.580Z,100717.22
2022-08-01T06:08:53.929Z,100715.56
2022-08-01T06:11:22.694Z,100724.56
2022-08-01T06:13:53.270Z,100734.59
2022-08-01T06:16:22.753Z,100737.28
2022-08-01T06:18:56.514Z,100741.22
2022-08-01T06:21:25.682Z,100744.56
2022-08-01T06:23:53.573Z,100753.88
2022-08-01T06:26:22.447Z,100759.66
2022-08-01T06:28:50.490Z,100765.00
2022-08-01T06:31:18.394Z,100771.13
2022-08-01T06:33:47.331Z,100728.38
2022-08-01T06:36:14.937Z,100717.81
2022-08-01T06:38:42.542Z,100717.97
2022-08-01T06:41:10.260Z,100731.16
2022-08-01T06:43:37.811Z,100732.06
2022-08-01T06:46:06.340Z,100732.25
2022-08-01T06:48:33.883Z,100731.06
2022-08-01T06:51:14.632Z,100725.09
2022-08-01T06:53:42.262Z,100727.91
2022-08-01T06:56:11.858Z,100730.13
2022-08-01T06:58:40.205Z,100728.28
2022-08-01T07:01:08.411Z,100729.59
2022-08-01T07:03:54.365Z,100733.38
2022-08-01T07:06:24.696Z,100735.31
2022-08-01T07:08:52.468Z,100731.16
2022-08-01T07:11:20.353Z,100730.63
2022-08-01T07:13:48.011Z,100732.44
2022-08-01T07:16:16.342Z,100727.41
2022-08-01T07:18:44.188Z,100723.72
2022-08-01T07:21:38.896Z,100728.59
2022-08-01T07:24:00.908Z,100727.63
2022-08-01T07:26:28.607Z,100732.00
2022-08-01T07:28:56.260Z,100724.84
2022-08-01T07:31:27.347Z,100739.44
2022-08-01T07:33:57.331Z,100752.19
2022-08-01T07:36:25.316Z,100748.09
2022-08-01T07:38:53.271Z,100755.00
2022-08-01T07:41:22.780Z,100764.81
2022-08-01T07:44:10.652Z,100767.50
2022-08-01T07:46:39.125Z,100769.78
2022-08-01T07:49:07.010Z,100767.91
2022-08-01T07:51:34.785Z,100776.41
2022-08-01T07:54:02.625Z,100773.19
2022-08-01T07:56:31.712Z,100779.44
2022-08-01T07:58:59.458Z,100775.38
2022-08-01T08:01:28.409Z,100777.66
2022-08-01T08:03:56.513Z,100780.19
2022-08-01T08:06:24.222Z,100773.75
2022-08-01T08:08:51.968Z,100782.44
2022-08-01T08:11:19.780Z,100786.34
2022-08-01T08:13:48.830Z,100786.56
2022-08-01T08:16:16.766Z,100790.16
2022-08-01T08:18:44.878Z,100781.19
2022-08-01T08:21:13.508Z,100783.16
2022-08-01T08:23:59.198Z,100788.56
2022-08-01T08:26:27.655Z,100790.63
2022-08-01T08:29:01.925Z,100794.97
2022-08-01T08:32:31.587Z,100795.03
2022-08-01T08:34:59.533Z,100797.81
2022-08-01T08:37:31.488Z,100788.53
2022-08-01T08:40:08.095Z,100791.31
2022-08-01T08:42:36.918Z,100794.84
2022-08-01T08:45:11.928Z,100795.06
2022-08-01T08:47:40.633Z,100809.75
2022-08-01T08:50:09.058Z,100805.94
2022-08-01T08:52:40.696Z,100805.41
2022-08-01T08:55:10.361Z,100802.97
2022-08-01T08:57:41.864Z,100809.59
2022-08-01T09:00:14.297Z,100805.72
2022-08-01T09:02:43.923Z,100817.72
2022-08-01T09:05:18.937Z,100819.19
2022-08-01T09:07:49.302Z,100827.81
2022-08-01T09:11:22.962Z,100830.38
2022-08-01T09:14:05.038Z,100829.41
2022-08-01T09:16:44.210Z,100837.00
2022-08-01T09:19:39.812Z,100837.16
2022-08-01T09:22:09.745Z,100844.03
2022-08-01T09:24:39.443Z,100849.44
2022-08-01T09:27:21.733Z,100855.63
2022-08-01T09:30:01.613Z,100845.91
2022-08-01T09:32:36.453Z,100857.72
2022-08-01T09:35:31.151Z,100862.56
2022-08-01T09:38:16.860Z,100866.94
2022-08-01T09:40:49.502Z,100872.44
2022-08-01T09:43:19.188Z,100868.13
2022-08-01T09:45:50.598Z,100872.38
2022-08-01T09:48:28.456Z,100876.75
2022-08-01T09:51:04.695Z,100877.59
2022-08-01T09:53:51.391Z,100877.06
2022-08-01T09:56:23.411Z,100881.72
2022-08-01T09:58:59.914Z,100884.53
2022-08-01T10:01:37.389Z,100889.63
2022-08-01T10:04:12.112Z,100892.78
2022-08-01T10:06:44.079Z,100904.63
2022-08-01T10:09:13.296Z,100896.84
2022-08-01T10:11:43.272Z,100899.00
2022-08-01T10:14:14.770Z,100897.97
2022-08-01T10:16:53.547Z,100896.31
2022-08-01T10:19:30.066Z,100897.63
2022-08-01T10:22:01.035Z,100895.59
2022-08-01T10:24:31.185Z,100893.91
2022-08-01T10:27:09.155Z,100891.59
2022-08-01T10:29:45.623Z,100888.63
2022-08-01T10:32:17.281Z,100896.06
2022-08-01T10:34:46.952Z,100893.91
2022-08-01T10:37:18.187Z,100899.16
2022-08-01T10:39:46.986Z,100905.13
2022-08-01T10:42:15.593Z,100903.75
2022-08-01T10:44:47.236Z,100904.56
2022-08-01T10:47:23.024Z,100899.44
2022-08-01T10:50:01.208Z,100908.38
2022-08-01T10:52:30.703Z,100908.31
2022-08-01T10:55:04.793Z,100909.31
2022-08-01T10:57:44.490Z,100917.97
2022-08-01T11:00:21.580Z,100915.53
2022-08-01T11:03:01.750Z,100912.53
2022-08-01T11:05:34.073Z,100906.88
2022-08-01T11:08:04.327Z,100913.81
2022-08-01T11:10:37.097Z,100911.69
2022-08-01T11:13:08.928Z,100904.84
2022-08-01T11:15:50.160Z,100901.63
2022-08-01T11:18:37.504Z,100916.31
2022-08-01T11:21:57.880Z,100906.44
2022-08-01T11:23:55.560Z,100908.09
2022-08-01T11:26:29.131Z,100906.19
2022-08-01T11:29:22.118Z,100908.84
2022-08-01T11:31:52.894Z,100926.63
2022-08-01T11:34:55.479Z,100925.91
2022-08-01T11:37:30.801Z,100922.16
2022-08-01T11:40:18.710Z,100927.44
2022-08-01T11:42:47.076Z,100921.47
2022-08-01T11:45:18.671Z,100921.34
2022-08-01T11:47:47.951Z,100925.31
2022-08-01T11:50:37.167Z,100922.69
2022-08-01T11:53:11.377Z,100919.72
2022-08-01T11:55:47.652Z,100915.88
2022-08-01T11:58:27.505Z,100911.28
2022-08-01T12:00:59.309Z,100908.88
2022-08-01T12:03:33.014Z,100914.88
2022-08-01T12:06:01.893Z,100925.50
2022-08-01T12:08:34.125Z,100911.41
2022-08-01T12:11:02.771Z,100917.97
2022-08-01T12:13:41.756Z,100923.13
2022-08-01T12:16:10.436Z,100922.59
2022-08-01T12:18:40.979Z,100919.03
2022-08-01T12:21:09.483Z,100925.84
2022-08-01T12:23:39.662Z,100921.75
2022-08-01T12:26:08.501Z,100909.47
2022-08-01T12:28:57.044Z,100916.28
2022-08-01T12:31:33.643Z,100920.91
2022-08-01T12:34:29.875Z,100924.59
2022-08-01T12:36:58.935Z,100914.06
2022-08-01T12:43:15.850Z,100913.69
2022-08-01T12:45:57.336Z,100914.63
2022-08-01T12:48:26.550Z,100908.91
2022-08-01T12:50:57.028Z,100917.25
2022-08-01T12:53:39.660Z,100914.31
2022-08-01T12:56:12.127Z,100923.09
2022-08-01T12:58:45.359Z,100913.22
2022-08-01T13:01:14.516Z,100915.34
2022-08-01T13:03:42.572Z,100924.25
2022-08-01T13:06:17.759Z,100929.06
2022-08-01T13:08:47.844Z,100913.72
2022-08-01T13:12:20.774Z,100912.16
2022-08-01T13:14:50.372Z,100925.25
2022-08-01T13:17:32.931Z,100924.91
2022-08-01T13:20:01.498Z,100922.34
2022-08-01T13:22:34.611Z,100919.94
2022-08-01T13:25:13.083Z,100934.06
2022-08-01T13:27:53.529Z,100930.88
2022-08-01T13:30:25.196Z,100916.91
2022-08-01T13:33:03.096Z,100925.25
2022-08-01T13:35:31.280Z,100921.81
2022-08-01T13:37:59.268Z,100925.09
2022-08-01T13:40:28.349Z,100930.91
2022-08-01T13:42:57.735Z,100918.84
2022-08-01T13:45:26.900Z,100918.47
2022-08-01T13:48:03.707Z,100923.69
2022-08-01T13:50:40.682Z,100923.16
2022-08-01T13:53:09.085Z,100921.97
2022-08-01T13:55:37.471Z,100925.47
2022-08-01T13:58:06.175Z,100927.44
2022-08-01T14:00:36.902Z,100904.84
2022-08-01T14:03:05.195Z,100917.41
2022-08-01T14:05:33.925Z,100925.78
2022-08-01T14:08:02.976Z,100922.78
2022-08-01T14:10:32.645Z,100929.34
2022-08-01T14:13:01.956Z,100916.81
2022-08-01T14:16:31.077Z,100921.63
2022-08-01T14:19:04.069Z,100919.81
2022-08-01T14:21:32.897Z,100923.28
2022-08-01T14:24:07.685Z,100919.06
2022-08-01T14:26:38.042Z,100907.97
2022-08-01T14:29:06.186Z,100909.38
2022-08-01T14:31:34.673Z,100913.16
2022-08-01T14:34:05.166Z,100916.38
2022-08-01T14:36:38.109Z,100913.25
2022-08-01T14:39:07.363Z,100905.38
2022-08-01T14:41:43.041Z,100913.38
2022-08-01T14:44:15.340Z,100920.63
2022-08-01T14:46:57.874Z,100920.06
2022-08-01T14:49:28.160Z,100923.88
2022-08-01T14:51:56.234Z,100904.97
2022-08-01T14:54:26.746Z,100921.41
2022-08-01T14:56:58.435Z,100928.56
2022-08-01T14:59:27.462Z,100921.22
2022-08-01T15:01:57.312Z,100922.84
2022-08-01T15:04:31.605Z,100912.91
2022-08-01T15:07:00.566Z,100913.75
2022-08-01T15:14:10.880Z,100921.63
2022-08-01T15:16:40.686Z,100909.66
2022-08-01T15:19:10.733Z,100911.16
2022-08-01T15:22:43.053Z,100916.59
2022-08-01T15:25:12.659Z,100908.22
2022-08-01T15:27:41.784Z,100907.75
2022-08-01T15:30:10.643Z,100915.94
2022-08-01T15:32:39.921Z,100922.03
2022-08-01T15:35:11.596Z,100926.25
2022-08-01T15:37:43.225Z,100927.94
2022-08-01T15:40:14.026Z,100916.56
2022-08-01T15:42:42.657Z,100913.69
2022-08-01T15:45:37.383Z,100902.75
2022-08-01T15:48:05.337Z,100903.09
2022-08-01T15:55:15.915Z,100899.22
2022-08-01T15:57:46.159Z,100903.03
2022-08-01T16:00:15.182Z,100900.94
2022-08-01T16:06:24.837Z,100892.91
2022-08-01T16:08:53.736Z,100895.63
2022-08-01T16:16:03.270Z,100909.88
2022-08-01T16:22:15.547Z,100913.44
2022-08-01T16:24:43.922Z,100918.38
2022-08-01T16:27:13.849Z,100909.47
2022-08-01T16:29:43.021Z,100908.53
2022-08-01T16:32:22.569Z,100906.38
2022-08-01T16:34:53.668Z,100909.28
2022-08-01T16:37:24.150Z,100915.31
2022-08-01T16:39:52.357Z,100908.75
2022-08-01T16:42:27.512Z,100899.72
2022-08-01T16:45:57.062Z,100887.38
2022-08-01T16:48:27.000Z,100888.22
2022-08-01T16:51:59.463Z,100892.03
2022-08-01T16:54:32.708Z,100887.31
2022-08-01T16:57:08.506Z,100888.13
2022-08-01T16:59:41.328Z,100890.31
2022-08-01T17:02:12.215Z,100891.38
2022-08-01T17:08:22.867Z,100896.97
2022-08-01T17:10:53.342Z,100902.03
2022-08-01T17:13:23.597Z,100899.84
2022-08-01T17:15:53.692Z,100906.09
2022-08-01T17:23:03.975Z,100914.47
2022-08-01T17:26:33.398Z,100906.75
2022-08-01T17:29:04.021Z,100907.56
2022-08-01T17:31:33.370Z,100906.91
2022-08-01T17:34:02.303Z,100918.66
2022-08-01T17:36:30.712Z,100913.47
2022-08-01T17:39:00.276Z,100908.81
2022-08-01T17:41:30.702Z,100914.03
2022-08-01T17:44:00.823Z,100905.03
2022-08-01T17:46:31.648Z,100913.81
2022-08-01T17:51:45.822Z,100912.19
2022-08-01T17:57:56.218Z,100911.16
2022-08-01T18:00:24.720Z,100911.69
2022-08-01T18:03:57.421Z,100908.13
2022-08-01T18:06:28.997Z,100910.56
2022-08-01T18:12:39.568Z,100919.84
2022-08-01T18:15:10.178Z,100923.09
2022-08-01T18:21:25.575Z,100922.03
2022-08-01T18:23:55.421Z,100914.69
2022-08-01T18:26:23.700Z,100920.69
2022-08-01T18:28:52.205Z,100924.94
2022-08-01T18:31:23.563Z,100927.56
2022-08-01T18:33:51.722Z,100915.41
2022-08-01T18:36:32.952Z,100926.78
2022-08-01T18:42:51.792Z,100930.06
2022-08-01T18:45:21.393Z,100929.31
2022-08-01T18:47:49.917Z,100939.41
2022-08-01T18:50:18.943Z,100922.13
2022-08-01T18:52:47.977Z,100926.19
2022-08-01T18:55:17.834Z,100915.84
2022-08-01T18:57:46.840Z,100935.22
2022-08-01T19:00:15.694Z,100929.50
2022-08-01T19:02:43.899Z,100934.81
2022-08-01T19:05:13.130Z,100942.28
2022-08-01T19:08:05.547Z,100937.69
2022-08-01T19:10:33.465Z,100939.59
2022-08-01T19:13:02.389Z,100952.59
2022-08-01T19:15:34.796Z,100943.41
2022-08-01T19:18:03.391Z,100942.47
2022-08-01T19:20:32.756Z,100957.75
2022-08-01T19:23:21.400Z,100961.47
2022-08-01T19:25:55.640Z,100962.97
2022-08-01T19:28:26.103Z,100960.16
2022-08-01T19:30:55.459Z,100964.56
2022-08-01T19:34:26.685Z,100957.00
2022-08-01T19:37:00.101Z,100960.91
2022-08-01T19:39:29.344Z,100949.78
2022-08-01T19:42:04.397Z,100950.75
2022-08-01T19:44:33.486Z,100957.94
2022-08-01T19:47:02.439Z,100967.50
2022-08-01T19:50:31.754Z,100966.38
2022-08-01T19:53:02.356Z,100963.38
2022-08-01T19:55:34.244Z,100972.38
2022-08-01T19:58:26.465Z,100967.25
2022-08-01T20:00:55.888Z,100973.53
2022-08-01T20:03:25.252Z,100978.69
2022-08-01T20:05:54.513Z,100972.44
2022-08-01T20:08:23.435Z,100967.25
2022-08-01T20:10:52.148Z,100977.50
2022-08-01T20:13:22.222Z,100976.56
2022-08-01T20:15:53.986Z,100980.09
2022-08-01T20:18:22.053Z,100988.31
2022-08-01T20:20:51.332Z,100983.03
2022-08-01T20:23:21.437Z,100983.19
2022-08-01T20:25:53.453Z,100990.56
2022-08-01T20:28:27.913Z,100990.91
2022-08-01T20:31:03.518Z,100988.25
2022-08-01T20:33:36.362Z,100988.16
2022-08-01T20:36:05.633Z,100989.47
2022-08-01T20:38:42.196Z,100984.88
2022-08-01T20:41:10.763Z,100987.72
2022-08-01T20:43:43.624Z,100992.41
2022-08-01T20:46:13.950Z,100974.81
2022-08-01T20:48:41.919Z,100975.47
2022-08-01T20:51:19.885Z,100983.84
2022-08-01T20:53:52.628Z,100995.91
2022-08-01T20:56:30.965Z,101004.13
2022-08-01T20:59:06.768Z,101006.56
2022-08-01T21:01:40.587Z,101004.72
2022-08-01T21:04:29.731Z,100998.25
2022-08-01T21:07:05.054Z,100998.56
2022-08-01T21:09:39.474Z,100994.91
2022-08-01T21:12:14.776Z,100993.34
2022-08-01T21:14:53.743Z,100985.63
2022-08-01T21:17:33.928Z,100987.78
2022-08-01T21:20:07.615Z,100990.81
2022-08-01T21:22:39.141Z,100998.06
2022-08-01T21:25:11.105Z,100990.88
2022-08-01T21:27:41.127Z,100994.22
2022-08-01T21:30:11.754Z,100983.97
2022-08-01T21:32:43.111Z,100990.31
2022-08-01T21:35:15.978Z,100999.00
2022-08-01T21:42:01.688Z,101001.91
2022-08-01T21:44:16.670Z,100997.16
2022-08-01T21:46:47.208Z,100997.63
2022-08-01T21:49:15.342Z,101002.47
2022-08-01T21:51:45.699Z,101003.47
2022-08-01T21:54:26.110Z,101006.44
2022-08-01T21:57:00.740Z,101007.91
2022-08-01T21:59:34.432Z,101000.13
2022-08-01T22:02:09.384Z,101000.13
2022-08-01T22:04:44.565Z,100997.38
2022-08-01T22:07:15.649Z,101002.09
2022-08-01T22:09:47.166Z,101007.75
2022-08-01T22:12:18.271Z,101010.34
2022-08-01T22:14:49.459Z,101010.28
2022-08-01T22:17:22.662Z,101002.81
2022-08-01T22:19:53.953Z,101010.50
2022-08-01T22:22:44.525Z,101008.09
2022-08-01T22:25:12.353Z,101005.56
2022-08-01T22:28:07.828Z,100998.09
2022-08-01T22:30:30.367Z,101002.81
2022-08-01T22:33:07.888Z,101000.03
2022-08-01T22:35:46.925Z,101005.22
2022-08-01T22:38:14.967Z,101006.84
2022-08-01T22:40:50.171Z,101007.50
2022-08-01T22:43:26.142Z,101013.22
2022-08-01T22:46:04.147Z,101018.25
2022-08-01T22:48:39.754Z,101021.50
2022-08-01T22:51:12.022Z,101014.06
2022-08-01T22:53:45.005Z,101014.03
2022-08-01T22:56:14.903Z,101013.47
2022-08-01T22:58:45.046Z,101022.69
2022-08-01T23:01:21.298Z,101023.53
2022-08-01T23:03:52.124Z,101021.44
2022-08-01T23:06:26.017Z,101007.94
2022-08-01T23:08:57.507Z,101009.66
2022-08-01T23:11:25.430Z,101002.38
2022-08-01T23:13:53.919Z,101006.44
2022-08-01T23:16:23.663Z,101003.97
2022-08-01T23:18:57.146Z,101010.66
2022-08-01T23:21:25.260Z,101008.03
2022-08-01T23:23:55.443Z,101015.31
2022-08-01T23:26:25.294Z,101014.50
2022-08-01T23:28:54.207Z,101010.56
2022-08-01T23:31:55.577Z,101014.47
2022-08-01T23:34:19.616Z,101009.16
2022-08-01T23:36:48.002Z,101003.28
2022-08-01T23:39:17.012Z,100999.22
2022-08-01T23:41:57.300Z,100989.66
2022-08-01T23:44:26.643Z,100990.38
2022-08-01T23:46:54.577Z,100993.53
2022-08-01T23:49:27.305Z,100988.34
2022-08-01T23:51:56.276Z,100982.25
2022-08-01T23:54:24.813Z,100989.34
2022-08-01T23:56:52.965Z,100988.13
2022-08-01T23:59:21.357Z,100980.63
